Time;durP1;ratioP1;P1;durP2;ratioP2;P2;SDS_P1;SDS_P2;PMS_P1;PMS_P2;Temp;Humidity;BMP_temperature;BMP_pressure;BME280_temperature;BME280_humidity;BME280_pressure;Samples;Min_cycle;Max_cycle;Signal;HPM_P1;HPM_P2
2022/11/17 00:00:34;;;;;;;24.50;13.63;;;;;;;;;;733930;189;918007;-69
2022/11/17 00:03:00;;;;;;;17.73;9.63;;;;;;;;;;733983;190;917373;-75
2022/11/17 00:05:26;;;;;;;18.60;9.23;;;;;;;;;;743353;190;901599;-75
2022/11/17 00:07:52;;;;;;;17.03;9.40;;;;;;;;;;737968;190;918503;-69
2022/11/17 00:10:18;;;;;;;16.83;9.90;;;;;;;;;;737823;191;816076;-77
2022/11/17 00:15:15;;;;;;;15.30;8.90;;;;;;;;;;737818;192;917215;-69
2022/11/17 00:17:41;;;;;;;25.80;13.97;;;;;;;;;;734254;189;917828;-69
2022/11/17 00:22:39;;;;;;;15.23;9.87;;;;;;;;;;730077;189;918411;-68
2022/11/17 00:25:06;;;;;;;15.43;10.50;;;;;;;;;;736074;192;917840;-68
2022/11/17 00:27:31;;;;;;;15.43;10.50;;;;;;;;;;727193;191;919636;-74
2022/11/17 00:29:57;;;;;;;13.15;5.10;;;;;;;;;;722251;193;917738;-75
2022/11/17 00:34:55;;;;;;;17.62;10.63;;;;;;;;;;729659;191;911228;-69
2022/11/17 00:37:21;;;;;;;15.67;9.17;;;;;;;;;;721982;192;927831;-68
2022/11/17 00:39:47;;;;;;;16.47;8.97;;;;;;;;;;729065;191;921022;-68
2022/11/17 00:42:13;;;;;;;11.77;7.13;;;;;;;;;;731173;191;823451;-75
2022/11/17 00:44:38;;;;;;;11.77;8.03;;;;;;;;;;729273;191;915649;-67
2022/11/17 00:47:04;;;;;;;15.90;10.90;;;;;;;;;;733628;191;914459;-73
2022/11/17 00:49:30;;;;;;;15.50;9.60;;;;;;;;;;737192;191;815606;-67
2022/11/17 00:51:56;;;;;;;14.60;8.73;;;;;;;;;;734163;190;903821;-66
2022/11/17 00:54:22;;;;;;;14.90;9.50;;;;;;;;;;739401;188;739354;-67
2022/11/17 00:56:48;;;;;;;16.13;9.17;;;;;;;;;;740881;191;911420;-73
2022/11/17 00:59:14;;;;;;;10.27;7.17;;;;;;;;;;732833;188;912319;-66
2022/11/17 01:01:39;;;;;;;17.70;8.35;;;;;;;;;;732347;191;919479;-77
2022/11/17 01:04:05;;;;;;;12.57;8.90;;;;;;;;;;733336;191;1031260;-75
2022/11/17 01:06:32;;;;;;;14.53;9.03;;;;;;;;;;729446;191;916881;-66
2022/11/17 01:08:59;;;;;;;14.40;9.17;;;;;;;;;;730048;190;919488;-68
2022/11/17 01:11:25;;;;;;;9.83;6.80;;;;;;;;;;732580;189;920063;-72
2022/11/17 01:13:51;;;;;;;14.53;9.33;;;;;;;;;;733799;189;921082;-66
2022/11/17 01:16:17;;;;;;;12.97;6.50;;;;;;;;;;729263;190;819401;-66
2022/11/17 01:18:42;;;;;;;9.13;6.53;;;;;;;;;;729131;189;885976;-75
2022/11/17 01:21:09;;;;;;;10.63;6.53;;;;;;;;;;733218;190;918789;-74
2022/11/17 01:23:35;;;;;;;13.97;9.37;;;;;;;;;;734144;189;816660;-72
2022/11/17 01:26:03;;;;;;;6.47;4.57;;;;;;;;;;732691;191;994040;-71
2022/11/17 01:28:28;;;;;;;11.03;5.30;;;;;;;;;;731626;191;920932;-74
2022/11/17 01:30:58;;;;;;;9.63;7.00;;;;;;;;;;735225;192;930192;-73
2022/11/17 01:33:24;;;;;;;10.20;6.67;;;;;;;;;;727977;190;919155;-71
2022/11/17 01:35:50;;;;;;;8.00;5.97;;;;;;;;;;730283;192;910597;-71
2022/11/17 01:38:16;;;;;;;7.93;6.10;;;;;;;;;;740287;191;918454;-67
2022/11/17 01:40:42;;;;;;;6.70;4.97;;;;;;;;;;734965;191;918164;-71
2022/11/17 01:43:07;;;;;;;7.83;5.70;;;;;;;;;;735399;187;915109;-65
2022/11/17 01:45:33;;;;;;;4.50;3.30;;;;;;;;;;736024;190;1021029;-66
2022/11/17 01:47:59;;;;;;;7.40;3.77;;;;;;;;;;738145;188;819635;-72
2022/11/17 01:50:31;;;;;;;4.90;3.40;;;;;;;;;;727602;191;918150;-72
2022/11/17 01:52:58;;;;;;;6.80;4.60;;;;;;;;;;727521;191;915544;-66
2022/11/17 01:55:23;;;;;;;4.30;2.55;;;;;;;;;;733172;191;922875;-73
2022/11/17 01:57:53;;;;;;;8.20;4.10;;;;;;;;;;732353;188;1021324;-73
2022/11/17 02:00:19;;;;;;;13.87;4.40;;;;;;;;;;732425;191;920583;-70
2022/11/17 02:02:45;;;;;;;6.57;5.17;;;;;;;;;;730944;192;920889;-65
2022/11/17 02:05:16;;;;;;;5.10;3.43;;;;;;;;;;740522;191;916669;-65
2022/11/17 02:07:42;;;;;;;6.60;5.30;;;;;;;;;;736803;190;630405;-64
2022/11/17 02:10:08;;;;;;;8.75;4.55;;;;;;;;;;727551;192;918909;-69
2022/11/17 02:12:34;;;;;;;8.50;5.30;;;;;;;;;;734811;189;917439;-68
2022/11/17 02:15:00;;;;;;;14.27;6.10;;;;;;;;;;730965;193;918341;-65
2022/11/17 02:17:26;;;;;;;9.37;6.50;;;;;;;;;;730755;191;909433;-68
2022/11/17 02:19:53;;;;;;;8.30;6.07;;;;;;;;;;732005;190;880243;-65
2022/11/17 02:22:33;;;;;;;10.07;6.87;;;;;;;;;;738088;189;816229;-68
2022/11/17 02:25:17;;;;;;;8.70;5.93;;;;;;;;;;742033;188;917015;-68
2022/11/17 02:27:44;;;;;;;7.70;4.30;;;;;;;;;;737270;186;864769;-69
2022/11/17 02:30:10;;;;;;;8.17;5.87;;;;;;;;;;727012;193;919104;-66
2022/11/17 02:32:38;;;;;;;8.80;5.72;;;;;;;;;;728244;188;919238;-70
2022/11/17 02:35:07;;;;;;;13.47;5.90;;;;;;;;;;739584;191;918596;-65
2022/11/17 02:37:34;;;;;;;9.33;6.17;;;;;;;;;;741331;188;917368;-66
2022/11/17 02:40:03;;;;;;;11.80;5.73;;;;;;;;;;729101;190;918132;-69
2022/11/17 02:45:04;;;;;;;6.97;5.57;;;;;;;;;;727152;191;929994;-69
2022/11/17 02:47:30;;;;;;;6.73;4.20;;;;;;;;;;733202;188;918297;-71
2022/11/17 02:49:56;;;;;;;6.00;3.80;;;;;;;;;;731400;191;923924;-66
2022/11/17 02:52:22;;;;;;;9.97;5.83;;;;;;;;;;734252;191;916204;-68
2022/11/17 02:54:48;;;;;;;9.07;5.63;;;;;;;;;;730137;191;919678;-65
2022/11/17 02:57:19;;;;;;;15.73;5.72;;;;;;;;;;724855;191;913866;-69
2022/11/17 02:59:45;;;;;;;8.50;5.10;;;;;;;;;;720792;191;817957;-68
2022/11/17 03:02:13;;;;;;;6.47;4.85;;;;;;;;;;725070;191;816895;-66
2022/11/17 03:04:42;;;;;;;7.07;4.93;;;;;;;;;;743068;187;918716;-70
2022/11/17 03:07:08;;;;;;;4.80;4.10;;;;;;;;;;737332;190;917923;-66
2022/11/17 03:09:36;;;;;;;6.70;3.43;;;;;;;;;;733511;188;919534;-66
2022/11/17 03:12:19;;;;;;;6.90;5.10;;;;;;;;;;737660;191;914720;-65
2022/11/17 03:15:00;;;;;;;9.13;4.87;;;;;;;;;;733332;190;918165;-68
2022/11/17 03:17:29;;;;;;;9.10;5.60;;;;;;;;;;726463;191;918561;-65
2022/11/17 03:19:55;;;;;;;9.10;6.30;;;;;;;;;;739309;191;916801;-65
2022/11/17 03:22:23;;;;;;;6.50;5.33;;;;;;;;;;732154;191;918551;-65
2022/11/17 03:24:49;;;;;;;8.13;5.30;;;;;;;;;;730949;192;919726;-69
2022/11/17 03:27:16;;;;;;;7.50;5.47;;;;;;;;;;733800;192;919570;-70
2022/11/17 03:29:42;;;;;;;8.10;7.03;;;;;;;;;;724864;191;935251;-65
2022/11/17 03:32:08;;;;;;;8.00;6.50;;;;;;;;;;731412;190;920863;-69
2022/11/17 03:34:34;;;;;;;8.23;5.50;;;;;;;;;;732582;189;919304;-66
2022/11/17 03:37:00;;;;;;;9.07;5.80;;;;;;;;;;734125;188;920081;-65
2022/11/17 03:39:29;;;;;;;5.80;4.23;;;;;;;;;;724540;189;918919;-66
2022/11/17 03:41:55;;;;;;;9.47;5.27;;;;;;;;;;724342;191;919342;-65
2022/11/17 03:44:20;;;;;;;7.70;5.00;;;;;;;;;;740694;191;828668;-69
2022/11/17 03:46:46;;;;;;;4.63;3.20;;;;;;;;;;735693;191;933100;-65
2022/11/17 03:49:18;;;;;;;8.13;4.87;;;;;;;;;;737026;188;815384;-66
2022/11/17 03:51:44;;;;;;;4.90;3.70;;;;;;;;;;737278;191;919130;-66
2022/11/17 03:54:10;;;;;;;5.80;3.87;;;;;;;;;;738620;191;922796;-71
2022/11/17 03:56:36;;;;;;;5.47;3.33;;;;;;;;;;733209;190;898741;-70
2022/11/17 03:59:03;;;;;;;4.37;2.67;;;;;;;;;;728859;189;918613;-66
2022/11/17 04:01:29;;;;;;;3.70;2.67;;;;;;;;;;735802;190;917489;-69
2022/11/17 04:03:55;;;;;;;4.33;2.87;;;;;;;;;;725090;189;918053;-69
2022/11/17 04:06:21;;;;;;;4.23;3.03;;;;;;;;;;721071;193;918741;-66
2022/11/17 04:08:46;;;;;;;7.50;3.43;;;;;;;;;;731873;191;918734;-65
2022/11/17 04:16:16;;;;;;;4.03;2.70;;;;;;;;;;738299;190;917663;-66
2022/11/17 04:18:42;;;;;;;3.33;2.70;;;;;;;;;;740113;188;919382;-65
2022/11/17 04:21:08;;;;;;;5.43;3.70;;;;;;;;;;728222;190;918921;-69
2022/11/17 04:23:33;;;;;;;4.90;3.70;;;;;;;;;;728780;191;926378;-66
2022/11/17 04:28:36;;;;;;;4.43;2.50;;;;;;;;;;741798;188;816413;-66
2022/11/17 04:31:05;;;;;;;4.93;3.80;;;;;;;;;;728866;191;914966;-67
2022/11/17 04:33:31;;;;;;;5.50;3.70;;;;;;;;;;731253;191;916037;-70
2022/11/17 04:35:57;;;;;;;6.80;3.57;;;;;;;;;;730565;191;814620;-69
2022/11/17 04:38:23;;;;;;;4.43;3.10;;;;;;;;;;732879;192;911547;-70
2022/11/17 04:43:20;;;;;;;5.78;3.85;;;;;;;;;;737200;188;945225;-66
2022/11/17 04:45:46;;;;;;;6.80;5.03;;;;;;;;;;741301;189;1122056;-67
2022/11/17 04:48:12;;;;;;;4.70;3.43;;;;;;;;;;735233;190;938238;-66
2022/11/17 04:50:37;;;;;;;4.15;3.10;;;;;;;;;;733790;190;915229;-70
2022/11/17 04:53:03;;;;;;;3.80;2.50;;;;;;;;;;736985;188;917986;-66
2022/11/17 04:55:29;;;;;;;4.73;3.10;;;;;;;;;;743555;187;940360;-70
2022/11/17 04:57:55;;;;;;;3.67;2.30;;;;;;;;;;729254;188;964435;-66
2022/11/17 05:00:21;;;;;;;4.97;2.50;;;;;;;;;;731375;191;924135;-66
2022/11/17 05:02:47;;;;;;;3.70;2.80;;;;;;;;;;737185;192;919708;-66
2022/11/17 05:05:13;;;;;;;5.87;3.20;;;;;;;;;;723679;192;917686;-67
2022/11/17 05:07:38;;;;;;;4.90;2.77;;;;;;;;;;721380;193;936746;-70
2022/11/17 05:10:05;;;;;;;7.67;3.20;;;;;;;;;;729836;191;1119962;-67
2022/11/17 05:15:03;;;;;;;3.67;2.30;;;;;;;;;;732476;190;920525;-70
2022/11/17 05:17:29;;;;;;;5.13;2.73;;;;;;;;;;728403;190;919687;-67
2022/11/17 05:19:54;;;;;;;4.30;2.23;;;;;;;;;;734347;191;912365;-70
2022/11/17 05:24:52;;;;;;;3.80;2.67;;;;;;;;;;734517;191;973129;-70
2022/11/17 05:27:18;;;;;;;3.33;2.57;;;;;;;;;;734638;191;864978;-69
2022/11/17 05:29:44;;;;;;;4.97;3.08;;;;;;;;;;738278;190;826266;-66
2022/11/17 05:32:10;;;;;;;3.13;2.30;;;;;;;;;;735816;191;925991;-66
2022/11/17 05:34:35;;;;;;;2.83;2.30;;;;;;;;;;732780;188;915917;-66
2022/11/17 05:37:01;;;;;;;4.30;2.90;;;;;;;;;;737805;191;920805;-66
2022/11/17 05:39:27;;;;;;;5.03;3.27;;;;;;;;;;731543;188;919510;-67
2022/11/17 05:41:53;;;;;;;4.77;3.43;;;;;;;;;;734076;191;910646;-71
2022/11/17 05:44:19;;;;;;;4.07;3.20;;;;;;;;;;736262;190;908236;-67
2022/11/17 05:46:45;;;;;;;4.70;2.57;;;;;;;;;;728842;191;913912;-67
2022/11/17 05:49:11;;;;;;;5.50;3.23;;;;;;;;;;731314;191;886614;-66
2022/11/17 05:51:37;;;;;;;3.23;2.20;;;;;;;;;;733851;191;918471;-67
2022/11/17 05:54:02;;;;;;;3.93;2.80;;;;;;;;;;727141;191;880935;-70
2022/11/17 05:56:29;;;;;;;4.40;3.30;;;;;;;;;;731749;190;921248;-66
2022/11/17 05:58:58;;;;;;;3.70;2.97;;;;;;;;;;732066;190;919473;-66
2022/11/17 06:01:24;;;;;;;5.20;3.10;;;;;;;;;;735129;190;920774;-67
2022/11/17 06:03:50;;;;;;;4.23;3.37;;;;;;;;;;732326;190;895934;-70
2022/11/17 06:06:15;;;;;;;7.37;3.40;;;;;;;;;;730307;190;922304;-70
2022/11/17 06:08:41;;;;;;;6.20;3.80;;;;;;;;;;727099;191;817722;-67
2022/11/17 06:11:07;;;;;;;7.53;4.17;;;;;;;;;;732514;191;817312;-68
2022/11/17 06:13:33;;;;;;;26.70;13.70;;;;;;;;;;730147;187;1021862;-67
2022/11/17 06:15:59;;;;;;;10.80;7.50;;;;;;;;;;730943;191;918755;-65
2022/11/17 06:18:26;;;;;;;5.63;4.10;;;;;;;;;;733344;187;920998;-69
2022/11/17 06:20:52;;;;;;;6.80;4.73;;;;;;;;;;727656;190;917325;-68
2022/11/17 06:23:17;;;;;;;4.97;3.70;;;;;;;;;;731896;190;920164;-69
2022/11/17 06:25:43;;;;;;;8.13;5.83;;;;;;;;;;733792;191;924830;-65
2022/11/17 06:28:09;;;;;;;12.83;7.50;;;;;;;;;;727786;191;918715;-68
2022/11/17 06:30:35;;;;;;;38.10;17.40;;;;;;;;;;729397;191;916714;-65
2022/11/17 06:33:01;;;;;;;6.90;4.63;;;;;;;;;;734619;191;918877;-68
2022/11/17 06:35:32;;;;;;;34.17;23.30;;;;;;;;;;734265;190;917990;-68
2022/11/17 06:37:52;;;;;;;12.88;5.28;;;;;;;;;;727963;191;919294;-66
2022/11/17 06:40:19;;;;;;;18.30;11.40;;;;;;;;;;733552;191;813571;-68
2022/11/17 06:43:16;;;;;;;13.40;8.37;;;;;;;;;;741204;188;913556;-68
2022/11/17 06:45:25;;;;;;;8.83;6.00;;;;;;;;;;728555;191;919650;-65
2022/11/17 06:47:52;;;;;;;10.23;7.33;;;;;;;;;;733005;191;918571;-68
2022/11/17 06:50:17;;;;;;;7.63;4.77;;;;;;;;;;733553;191;919640;-68
2022/11/17 06:52:43;;;;;;;8.00;5.07;;;;;;;;;;731438;191;920702;-67
2022/11/17 06:55:09;;;;;;;7.30;5.03;;;;;;;;;;729490;191;818365;-66
2022/11/17 06:57:35;;;;;;;7.33;5.70;;;;;;;;;;730594;190;817531;-65
2022/11/17 07:00:00;;;;;;;6.00;4.70;;;;;;;;;;737083;191;920294;-68
2022/11/17 07:02:26;;;;;;;8.13;7.33;;;;;;;;;;728684;189;918997;-68
2022/11/17 07:04:52;;;;;;;8.60;5.10;;;;;;;;;;731110;191;714781;-67
2022/11/17 07:07:18;;;;;;;17.00;9.97;;;;;;;;;;735581;187;888895;-68
2022/11/17 07:09:44;;;;;;;10.80;5.90;;;;;;;;;;734273;190;881083;-65
2022/11/17 07:12:10;;;;;;;11.77;8.30;;;;;;;;;;733165;190;918705;-66
2022/11/17 07:14:36;;;;;;;16.03;9.30;;;;;;;;;;729182;190;917879;-68
2022/11/17 07:17:01;;;;;;;9.17;7.00;;;;;;;;;;740549;187;916991;-68
2022/11/17 07:19:27;;;;;;;11.20;7.63;;;;;;;;;;737044;190;852304;-66
2022/11/17 07:21:53;;;;;;;13.20;6.63;;;;;;;;;;733417;191;916420;-65
2022/11/17 07:24:19;;;;;;;7.83;5.03;;;;;;;;;;734557;191;619278;-66
2022/11/17 07:26:45;;;;;;;11.20;7.10;;;;;;;;;;731666;191;923057;-68
2022/11/17 07:29:11;;;;;;;10.47;7.87;;;;;;;;;;732869;188;799347;-67
2022/11/17 07:31:37;;;;;;;38.17;20.73;;;;;;;;;;740241;191;639846;-66
2022/11/17 07:34:02;;;;;;;24.23;15.83;;;;;;;;;;736339;189;626515;-69
2022/11/17 07:36:28;;;;;;;11.10;6.97;;;;;;;;;;733013;191;628855;-68
2022/11/17 07:38:54;;;;;;;16.23;13.00;;;;;;;;;;731720;191;918567;-67
2022/11/17 07:41:20;;;;;;;12.02;9.75;;;;;;;;;;732197;189;867574;-68
2022/11/17 07:43:46;;;;;;;14.70;10.40;;;;;;;;;;730460;189;939201;-68
2022/11/17 07:46:12;;;;;;;13.23;11.82;;;;;;;;;;732932;191;918571;-66
2022/11/17 07:48:38;;;;;;;8.40;6.20;;;;;;;;;;734462;187;917143;-68
2022/11/17 07:51:03;;;;;;;6.13;4.67;;;;;;;;;;729506;191;919421;-68
2022/11/17 07:53:31;;;;;;;84.75;34.92;;;;;;;;;;728452;189;922377;-68
2022/11/17 07:55:55;;;;;;;8.83;4.87;;;;;;;;;;734503;191;818176;-66
2022/11/17 07:58:24;;;;;;;22.20;16.57;;;;;;;;;;729406;189;895416;-68
2022/11/17 08:00:48;;;;;;;26.90;18.55;;;;;;;;;;729885;192;918725;-69
2022/11/17 08:03:14;;;;;;;20.17;17.08;;;;;;;;;;732742;191;922281;-66
2022/11/17 08:05:40;;;;;;;33.60;22.10;;;;;;;;;;744445;188;880403;-65
2022/11/17 08:08:07;;;;;;;26.33;15.87;;;;;;;;;;730771;191;914816;-66
2022/11/17 08:10:33;;;;;;;14.63;10.30;;;;;;;;;;731480;191;919087;-67
2022/11/17 08:12:59;;;;;;;23.47;12.40;;;;;;;;;;737507;191;822328;-66
2022/11/17 08:15:23;;;;;;;8.23;5.03;;;;;;;;;;737445;191;633950;-68
2022/11/17 08:17:50;;;;;;;14.73;10.97;;;;;;;;;;734120;190;909463;-67
2022/11/17 08:20:16;;;;;;;10.00;7.03;;;;;;;;;;740544;189;916875;-71
2022/11/17 08:22:43;;;;;;;12.00;8.50;;;;;;;;;;734604;188;1010344;-67
2022/11/17 08:25:08;;;;;;;10.40;6.70;;;;;;;;;;731120;190;890542;-68
2022/11/17 08:27:35;;;;;;;11.15;9.10;;;;;;;;;;738137;190;1019241;-68
2022/11/17 08:30:01;;;;;;;10.87;8.83;;;;;;;;;;738040;191;813911;-67
2022/11/17 08:32:28;;;;;;;17.10;8.87;;;;;;;;;;733242;188;1020526;-68
2022/11/17 08:34:53;;;;;;;19.45;11.68;;;;;;;;;;731929;191;954771;-66
2022/11/17 08:37:18;;;;;;;31.67;18.13;;;;;;;;;;738191;187;919229;-68
2022/11/17 08:39:44;;;;;;;16.20;7.37;;;;;;;;;;730832;190;933583;-67
2022/11/17 08:42:10;;;;;;;16.37;10.45;;;;;;;;;;729882;191;918368;-67
2022/11/17 08:44:36;;;;;;;12.20;9.70;;;;;;;;;;740110;188;920318;-66
2022/11/17 08:47:02;;;;;;;9.57;7.43;;;;;;;;;;730664;191;917848;-69
2022/11/17 08:49:28;;;;;;;6.47;5.12;;;;;;;;;;730842;189;871930;-67
2022/11/17 08:51:54;;;;;;;10.13;7.97;;;;;;;;;;736129;191;907449;-67
2022/11/17 08:54:19;;;;;;;13.37;7.87;;;;;;;;;;730192;188;816654;-67
2022/11/17 08:56:45;;;;;;;12.77;10.47;;;;;;;;;;732222;191;818014;-68
2022/11/17 08:59:11;;;;;;;12.13;8.80;;;;;;;;;;730004;190;817868;-67
2022/11/17 09:01:37;;;;;;;13.57;11.00;;;;;;;;;;734002;190;902825;-68
2022/11/17 09:04:04;;;;;;;10.83;8.50;;;;;;;;;;728640;191;912754;-66
2022/11/17 09:06:29;;;;;;;20.60;12.20;;;;;;;;;;734792;191;922602;-68
2022/11/17 09:08:55;;;;;;;11.40;6.57;;;;;;;;;;733211;190;919160;-66
2022/11/17 09:11:20;;;;;;;13.43;9.23;;;;;;;;;;728184;191;908847;-68
2022/11/17 09:13:46;;;;;;;7.40;6.40;;;;;;;;;;731862;189;914233;-67
2022/11/17 09:16:12;;;;;;;13.83;8.23;;;;;;;;;;731890;191;918537;-69
2022/11/17 09:18:38;;;;;;;12.68;8.10;;;;;;;;;;728661;191;926525;-68
2022/11/17 09:21:07;;;;;;;9.10;7.97;;;;;;;;;;726327;191;916121;-66
2022/11/17 09:23:33;;;;;;;12.27;7.83;;;;;;;;;;728664;191;920351;-68
2022/11/17 09:25:59;;;;;;;27.17;12.67;;;;;;;;;;736934;191;805240;-69
2022/11/17 09:28:25;;;;;;;13.10;8.33;;;;;;;;;;734223;191;895246;-66
2022/11/17 09:30:50;;;;;;;13.70;9.23;;;;;;;;;;730564;191;821329;-68
2022/11/17 09:33:16;;;;;;;10.90;6.30;;;;;;;;;;733486;188;817424;-68
2022/11/17 09:35:42;;;;;;;11.93;8.80;;;;;;;;;;730565;190;1012118;-65
2022/11/17 09:38:08;;;;;;;27.67;14.97;;;;;;;;;;733583;187;918545;-68
2022/11/17 09:40:34;;;;;;;33.97;18.27;;;;;;;;;;737278;191;920057;-69
2022/11/17 09:43:00;;;;;;;55.87;24.30;;;;;;;;;;736672;189;916483;-67
2022/11/17 09:45:28;;;;;;;43.60;19.45;;;;;;;;;;724577;191;921105;-68
2022/11/17 09:47:57;;;;;;;35.40;17.27;;;;;;;;;;728973;191;894618;-69
2022/11/17 09:50:25;;;;;;;36.40;19.95;;;;;;;;;;734526;191;916963;-67
2022/11/17 09:52:56;;;;;;;26.77;15.30;;;;;;;;;;731833;188;918973;-69
2022/11/17 09:55:33;;;;;;;10.47;6.23;;;;;;;;;;732257;190;919430;-70
2022/11/17 09:58:05;;;;;;;10.40;7.00;;;;;;;;;;730513;190;924236;-67
2022/11/17 10:00:31;;;;;;;15.00;12.63;;;;;;;;;;724596;192;977943;-67
2022/11/17 10:02:57;;;;;;;11.13;6.93;;;;;;;;;;728910;191;937071;-66
2022/11/17 10:05:32;;;;;;;7.87;5.12;;;;;;;;;;730027;191;965214;-66
2022/11/17 10:07:59;;;;;;;12.90;6.72;;;;;;;;;;733104;188;937919;-69
2022/11/17 10:10:39;;;;;;;7.90;6.00;;;;;;;;;;728752;190;1033754;-67
2022/11/17 10:13:05;;;;;;;7.27;5.33;;;;;;;;;;726816;191;914322;-69
2022/11/17 10:15:32;;;;;;;43.87;31.37;;;;;;;;;;734057;191;788563;-66
2022/11/17 10:17:58;;;;;;;12.48;8.38;;;;;;;;;;731149;188;812938;-69
2022/11/17 10:20:23;;;;;;;10.00;8.10;;;;;;;;;;732232;191;843162;-70
2022/11/17 10:22:49;;;;;;;22.57;18.93;;;;;;;;;;735969;189;903999;-66
2022/11/17 10:25:21;;;;;;;15.60;9.80;;;;;;;;;;734094;190;912551;-69
2022/11/17 10:27:50;;;;;;;12.70;8.10;;;;;;;;;;731471;189;819231;-68
2022/11/17 10:30:20;;;;;;;14.75;11.00;;;;;;;;;;733856;192;818978;-69
2022/11/17 10:32:46;;;;;;;30.73;18.63;;;;;;;;;;733830;191;915564;-67
2022/11/17 10:35:13;;;;;;;17.30;10.10;;;;;;;;;;733586;190;916547;-70
2022/11/17 10:37:39;;;;;;;12.80;8.30;;;;;;;;;;735918;188;874428;-70
2022/11/17 10:40:06;;;;;;;10.30;7.27;;;;;;;;;;735939;191;805486;-72
2022/11/17 10:42:31;;;;;;;7.60;4.67;;;;;;;;;;742273;186;824218;-71
2022/11/17 10:44:57;;;;;;;5.70;3.50;;;;;;;;;;735881;190;646023;-72
2022/11/17 10:47:29;;;;;;;8.20;4.80;;;;;;;;;;731104;190;655822;-68
2022/11/17 10:50:09;;;;;;;13.17;5.20;;;;;;;;;;741196;190;917653;-68
2022/11/17 10:52:35;;;;;;;6.33;5.13;;;;;;;;;;742120;191;622791;-69
2022/11/17 10:55:07;;;;;;;9.13;5.40;;;;;;;;;;735225;189;619115;-69
2022/11/17 10:57:32;;;;;;;9.07;6.50;;;;;;;;;;730822;188;907563;-70
2022/11/17 10:59:58;;;;;;;6.50;4.93;;;;;;;;;;732879;191;918957;-67
2022/11/17 11:02:28;;;;;;;8.83;6.10;;;;;;;;;;735622;191;934543;-68
2022/11/17 11:05:07;;;;;;;9.93;7.17;;;;;;;;;;730165;191;906941;-69
2022/11/17 11:07:33;;;;;;;12.57;8.37;;;;;;;;;;729491;191;942385;-72
2022/11/17 11:10:01;;;;;;;8.32;6.28;;;;;;;;;;729925;191;917101;-71
2022/11/17 11:12:28;;;;;;;7.43;4.97;;;;;;;;;;730828;189;919512;-71
2022/11/17 11:14:53;;;;;;;11.50;7.67;;;;;;;;;;733747;189;918831;-68
2022/11/17 11:17:19;;;;;;;13.53;6.73;;;;;;;;;;731806;187;920572;-72
2022/11/17 11:19:50;;;;;;;10.90;7.70;;;;;;;;;;738580;190;886284;-68
2022/11/17 11:22:34;;;;;;;9.83;8.23;;;;;;;;;;736388;189;915626;-71
2022/11/17 11:25:01;;;;;;;12.57;9.50;;;;;;;;;;739585;187;920504;-68
2022/11/17 11:27:30;;;;;;;15.20;9.73;;;;;;;;;;730096;190;886502;-71
2022/11/17 11:29:59;;;;;;;14.50;8.67;;;;;;;;;;731968;191;918424;-68
2022/11/17 11:32:25;;;;;;;13.13;8.77;;;;;;;;;;726895;191;918783;-71
2022/11/17 11:34:52;;;;;;;19.77;11.27;;;;;;;;;;737300;191;825044;-68
2022/11/17 11:37:18;;;;;;;13.90;10.60;;;;;;;;;;734639;191;617344;-72
2022/11/17 11:39:47;;;;;;;16.90;11.47;;;;;;;;;;731587;192;630159;-69
2022/11/17 11:42:16;;;;;;;10.40;8.23;;;;;;;;;;732868;191;737334;-71
2022/11/17 11:44:48;;;;;;;12.03;8.00;;;;;;;;;;732742;191;805320;-70
2022/11/17 11:47:31;;;;;;;14.93;11.60;;;;;;;;;;729871;190;939963;-68
2022/11/17 11:49:58;;;;;;;8.07;6.20;;;;;;;;;;732903;188;1012490;-68
2022/11/17 11:52:24;;;;;;;10.13;7.50;;;;;;;;;;727352;190;921570;-71
2022/11/17 11:54:49;;;;;;;8.73;7.83;;;;;;;;;;736553;189;918017;-70
2022/11/17 11:57:15;;;;;;;10.90;7.57;;;;;;;;;;736368;191;720319;-72
2022/11/17 11:59:47;;;;;;;8.30;6.43;;;;;;;;;;734630;190;774590;-68
2022/11/17 12:02:20;;;;;;;11.40;8.60;;;;;;;;;;735445;190;814348;-71
2022/11/17 12:04:49;;;;;;;9.93;7.93;;;;;;;;;;733369;188;816047;-68
2022/11/17 12:07:25;;;;;;;16.73;12.30;;;;;;;;;;740773;187;947843;-72
2022/11/17 12:09:52;;;;;;;10.70;8.33;;;;;;;;;;736331;190;817666;-71
2022/11/17 12:12:18;;;;;;;17.47;12.53;;;;;;;;;;735275;188;1014750;-71
2022/11/17 12:14:49;;;;;;;11.07;8.95;;;;;;;;;;737345;191;827672;-71
2022/11/17 12:17:16;;;;;;;18.33;10.70;;;;;;;;;;739032;191;933744;-71
2022/11/17 12:19:41;;;;;;;12.77;11.37;;;;;;;;;;728810;187;898381;-71
2022/11/17 12:22:07;;;;;;;8.23;6.37;;;;;;;;;;731201;190;921019;-71
2022/11/17 12:24:33;;;;;;;13.93;10.53;;;;;;;;;;736159;189;919371;-67
2022/11/17 12:27:14;;;;;;;10.30;7.90;;;;;;;;;;731401;191;921801;-72
2022/11/17 12:29:44;;;;;;;22.07;16.47;;;;;;;;;;718428;189;918776;-71
2022/11/17 12:32:10;;;;;;;12.17;8.60;;;;;;;;;;727067;191;920630;-71
2022/11/17 12:34:36;;;;;;;11.87;8.90;;;;;;;;;;729917;191;818702;-68
2022/11/17 12:37:08;;;;;;;16.50;11.57;;;;;;;;;;738332;191;814364;-68
2022/11/17 12:39:39;;;;;;;16.27;9.63;;;;;;;;;;735047;191;916502;-71
2022/11/17 12:42:05;;;;;;;18.13;11.50;;;;;;;;;;728206;190;922907;-71
2022/11/17 12:44:46;;;;;;;21.90;15.23;;;;;;;;;;732556;190;921289;-68
2022/11/17 12:47:14;;;;;;;16.50;10.30;;;;;;;;;;729235;191;901648;-70
2022/11/17 12:49:54;;;;;;;11.17;9.47;;;;;;;;;;731907;191;839910;-69
2022/11/17 12:52:20;;;;;;;16.47;12.07;;;;;;;;;;732589;187;881524;-72
2022/11/17 12:54:47;;;;;;;15.00;8.93;;;;;;;;;;733501;190;846035;-68
2022/11/17 12:57:13;;;;;;;15.60;9.23;;;;;;;;;;731305;191;916044;-68
2022/11/17 12:59:49;;;;;;;12.10;8.80;;;;;;;;;;727358;192;892838;-71
2022/11/17 13:02:18;;;;;;;19.23;14.53;;;;;;;;;;739127;190;912705;-67
2022/11/17 13:04:44;;;;;;;16.10;10.00;;;;;;;;;;733199;190;918915;-71
2022/11/17 13:07:10;;;;;;;28.97;18.67;;;;;;;;;;731221;190;917321;-71
2022/11/17 13:09:36;;;;;;;16.77;11.17;;;;;;;;;;735850;190;933893;-68
2022/11/17 13:12:03;;;;;;;16.60;10.90;;;;;;;;;;726163;190;916024;-71
2022/11/17 13:14:29;;;;;;;17.37;11.20;;;;;;;;;;734854;190;926167;-67
2022/11/17 13:16:55;;;;;;;15.93;10.70;;;;;;;;;;735401;191;919003;-67
2022/11/17 13:19:21;;;;;;;12.63;9.63;;;;;;;;;;727356;189;917819;-68
2022/11/17 13:21:47;;;;;;;17.60;11.03;;;;;;;;;;725344;191;937803;-68
2022/11/17 13:24:13;;;;;;;20.17;13.70;;;;;;;;;;732088;190;914494;-67
2022/11/17 13:26:39;;;;;;;19.33;12.30;;;;;;;;;;731905;191;920040;-71
2022/11/17 13:29:08;;;;;;;20.10;12.10;;;;;;;;;;731564;191;917614;-70
2022/11/17 13:31:34;;;;;;;22.50;14.53;;;;;;;;;;730678;191;918387;-69
2022/11/17 13:34:02;;;;;;;17.40;11.20;;;;;;;;;;736957;191;919200;-71
2022/11/17 13:36:28;;;;;;;16.30;11.27;;;;;;;;;;730835;190;919055;-70
2022/11/17 13:38:56;;;;;;;23.00;12.83;;;;;;;;;;735237;191;818055;-68
2022/11/17 13:41:19;;;;;;;38.90;22.63;;;;;;;;;;731957;191;880979;-70
2022/11/17 13:43:45;;;;;;;56.13;26.27;;;;;;;;;;730459;191;900669;-68
2022/11/17 13:46:11;;;;;;;43.00;23.90;;;;;;;;;;734761;191;916464;-68
2022/11/17 13:48:37;;;;;;;74.93;39.67;;;;;;;;;;725794;189;866216;-67
2022/11/17 13:51:09;;;;;;;54.60;27.50;;;;;;;;;;735626;191;817274;-68
2022/11/17 13:53:35;;;;;;;27.17;16.80;;;;;;;;;;730210;188;919290;-72
2022/11/17 13:56:00;;;;;;;29.90;15.13;;;;;;;;;;732545;191;918658;-72
2022/11/17 13:58:37;;;;;;;52.13;27.27;;;;;;;;;;730088;191;917135;-70
2022/11/17 14:01:03;;;;;;;26.03;15.80;;;;;;;;;;742740;187;920174;-67
2022/11/17 14:03:37;;;;;;;37.57;17.80;;;;;;;;;;728241;190;918083;-67
2022/11/17 14:06:03;;;;;;;24.20;15.33;;;;;;;;;;733635;189;919187;-68
2022/11/17 14:08:29;;;;;;;23.40;15.53;;;;;;;;;;732920;190;916139;-72
2022/11/17 14:11:00;;;;;;;28.53;14.73;;;;;;;;;;733022;191;919361;-68
2022/11/17 14:13:26;;;;;;;26.67;17.63;;;;;;;;;;728520;190;816493;-72
2022/11/17 14:15:53;;;;;;;29.90;15.17;;;;;;;;;;732025;191;817715;-71
2022/11/17 14:18:26;;;;;;;21.97;12.70;;;;;;;;;;731492;188;909526;-68
2022/11/17 14:20:57;;;;;;;36.47;19.30;;;;;;;;;;737833;190;914076;-72
2022/11/17 14:23:24;;;;;;;37.20;19.50;;;;;;;;;;739515;187;917691;-71
2022/11/17 14:25:50;;;;;;;44.50;22.03;;;;;;;;;;732772;191;925610;-71
2022/11/17 14:28:15;;;;;;;57.95;34.20;;;;;;;;;;730340;191;915925;-71
2022/11/17 14:30:41;;;;;;;46.90;27.20;;;;;;;;;;735165;190;941277;-68
2022/11/17 14:33:07;;;;;;;23.47;16.90;;;;;;;;;;731116;189;873745;-67
2022/11/17 14:35:32;;;;;;;25.13;14.33;;;;;;;;;;730869;190;906285;-72
2022/11/17 14:37:59;;;;;;;27.53;16.20;;;;;;;;;;730740;191;925221;-68
2022/11/17 14:40:25;;;;;;;34.03;21.75;;;;;;;;;;730095;191;918690;-67
2022/11/17 14:42:51;;;;;;;28.63;19.53;;;;;;;;;;728199;191;918934;-67